sensor_id;sensor_type;location;lat;lon;timestamp;temperature;humidity
68813;DHT22;55808;48.112;11.552;2023-04-03T00:01:14;2.20;99.90
68813;DHT22;55808;48.112;11.552;2023-04-03T00:03:40;2.10;99.90
68813;DHT22;55808;48.112;11.552;2023-04-03T00:06:07;2.10;99.90
68813;DHT22;55808;48.112;11.552;2023-04-03T00:08:34;2.10;99.90
68813;DHT22;55808;48.112;11.552;2023-04-03T00:11:00;2.30;99.90
68813;DHT22;55808;48.112;11.552;2023-04-03T00:13:26;2.20;99.90
68813;DHT22;55808;48.112;11.552;2023-04-03T00:15:51;2.30;99.90
68813;DHT22;55808;48.112;11.552;2023-04-03T00:18:17;2.30;99.90
68813;DHT22;55808;48.112;11.552;2023-04-03T00:20:43;2.40;99.90
68813;DHT22;55808;48.112;11.552;2023-04-03T00:23:09;2.40;99.90
68813;DHT22;55808;48.112;11.552;2023-04-03T00:25:35;2.30;99.90
68813;DHT22;55808;48.112;11.552;2023-04-03T00:28:00;2.10;99.90
68813;DHT22;55808;48.112;11.552;2023-04-03T00:30:26;2.20;99.90
68813;DHT22;55808;48.112;11.552;2023-04-03T00:32:52;2.30;99.90
68813;DHT22;55808;48.112;11.552;2023-04-03T00:35:18;2.20;99.90
68813;DHT22;55808;48.112;11.552;2023-04-03T00:37:43;2.10;99.90
68813;DHT22;55808;48.112;11.552;2023-04-03T00:40:09;2.00;99.90
68813;DHT22;55808;48.112;11.552;2023-04-03T00:42:38;2.10;99.90
68813;DHT22;55808;48.112;11.552;2023-04-03T00:47:30;2.20;99.90
68813;DHT22;55808;48.112;11.552;2023-04-03T00:49:56;2.30;99.90
68813;DHT22;55808;48.112;11.552;2023-04-03T00:52:23;2.40;99.90
68813;DHT22;55808;48.112;11.552;2023-04-03T00:54:51;2.30;99.90
68813;DHT22;55808;48.112;11.552;2023-04-03T00:57:19;2.30;99.90
68813;DHT22;55808;48.112;11.552;2023-04-03T00:59:47;2.10;99.90
68813;DHT22;55808;48.112;11.552;2023-04-03T01:02:14;2.10;99.90
68813;DHT22;55808;48.112;11.552;2023-04-03T01:04:41;2.20;99.90
68813;DHT22;55808;48.112;11.552;2023-04-03T01:07:08;2.20;99.90
68813;DHT22;55808;48.112;11.552;2023-04-03T01:09:35;2.20;99.90
68813;DHT22;55808;48.112;11.552;2023-04-03T01:12:17;2.20;99.90
68813;DHT22;55808;48.112;11.552;2023-04-03T01:14:43;2.20;99.90
68813;DHT22;55808;48.112;11.552;2023-04-03T01:20:10;2.20;99.90
68813;DHT22;55808;48.112;11.552;2023-04-03T01:22:43;2.30;99.90
68813;DHT22;55808;48.112;11.552;2023-04-03T01:25:10;2.30;99.90
68813;DHT22;55808;48.112;11.552;2023-04-03T01:27:36;2.40;99.90
68813;DHT22;55808;48.112;11.552;2023-04-03T01:30:01;2.40;99.90
68813;DHT22;55808;48.112;11.552;2023-04-03T01:32:27;2.40;99.90
68813;DHT22;55808;48.112;11.552;2023-04-03T01:34:53;2.30;99.90
68813;DHT22;55808;48.112;11.552;2023-04-03T01:37:18;2.40;99.90
68813;DHT22;55808;48.112;11.552;2023-04-03T01:39:44;2.40;99.90
68813;DHT22;55808;48.112;11.552;2023-04-03T01:42:09;2.40;99.90
68813;DHT22;55808;48.112;11.552;2023-04-03T01:44:36;2.40;99.90
68813;DHT22;55808;48.112;11.552;2023-04-03T01:47:02;2.50;99.90
68813;DHT22;55808;48.112;11.552;2023-04-03T01:49:27;2.60;99.90
68813;DHT22;55808;48.112;11.552;2023-04-03T01:51:53;2.60;99.90
68813;DHT22;55808;48.112;11.552;2023-04-03T01:54:18;2.50;99.90
68813;DHT22;55808;48.112;11.552;2023-04-03T01:56:44;2.50;99.90
68813;DHT22;55808;48.112;11.552;2023-04-03T01:59:10;2.50;99.90
68813;DHT22;55808;48.112;11.552;2023-04-03T02:01:35;2.40;99.90
68813;DHT22;55808;48.112;11.552;2023-04-03T02:04:01;2.40;99.90
68813;DHT22;55808;48.112;11.552;2023-04-03T02:06:26;2.50;99.90
68813;DHT22;55808;48.112;11.552;2023-04-03T02:08:52;2.50;99.90
68813;DHT22;55808;48.112;11.552;2023-04-03T02:11:17;2.50;99.90
68813;DHT22;55808;48.112;11.552;2023-04-03T02:13:43;2.50;99.90
68813;DHT22;55808;48.112;11.552;2023-04-03T02:16:09;2.50;99.90
68813;DHT22;55808;48.112;11.552;2023-04-03T02:18:35;2.50;99.90
68813;DHT22;55808;48.112;11.552;2023-04-03T02:21:00;2.50;99.90
68813;DHT22;55808;48.112;11.552;2023-04-03T02:23:26;2.50;99.90
68813;DHT22;55808;48.112;11.552;2023-04-03T02:25:51;2.50;99.90
68813;DHT22;55808;48.112;11.552;2023-04-03T02:28:17;2.50;99.90
68813;DHT22;55808;48.112;11.552;2023-04-03T02:30:42;2.40;99.90
68813;DHT22;55808;48.112;11.552;2023-04-03T02:33:08;2.50;99.90
68813;DHT22;55808;48.112;11.552;2023-04-03T02:35:33;2.40;99.90
68813;DHT22;55808;48.112;11.552;2023-04-03T02:37:59;2.40;99.90
68813;DHT22;55808;48.112;11.552;2023-04-03T02:40:24;2.40;99.90
68813;DHT22;55808;48.112;11.552;2023-04-03T02:42:50;2.40;99.90
68813;DHT22;55808;48.112;11.552;2023-04-03T02:45:16;2.50;99.90
68813;DHT22;55808;48.112;11.552;2023-04-03T02:47:41;2.40;99.90
68813;DHT22;55808;48.112;11.552;2023-04-03T02:50:07;2.30;99.90
68813;DHT22;55808;48.112;11.552;2023-04-03T02:52:32;2.40;99.90
68813;DHT22;55808;48.112;11.552;2023-04-03T02:54:58;2.30;99.90
68813;DHT22;55808;48.112;11.552;2023-04-03T02:57:23;2.30;99.90
68813;DHT22;55808;48.112;11.552;2023-04-03T02:59:49;2.30;99.90
68813;DHT22;55808;48.112;11.552;2023-04-03T03:02:14;2.30;99.90
68813;DHT22;55808;48.112;11.552;2023-04-03T03:04:40;2.30;99.90
68813;DHT22;55808;48.112;11.552;2023-04-03T03:07:05;2.40;99.90
68813;DHT22;55808;48.112;11.552;2023-04-03T03:09:31;2.40;99.90
68813;DHT22;55808;48.112;11.552;2023-04-03T03:11:57;2.30;99.90
68813;DHT22;55808;48.112;11.552;2023-04-03T03:14:22;2.30;99.90
68813;DHT22;55808;48.112;11.552;2023-04-03T03:16:48;2.20;99.90
68813;DHT22;55808;48.112;11.552;2023-04-03T03:19:14;2.20;99.90
68813;DHT22;55808;48.112;11.552;2023-04-03T03:21:40;2.30;99.90
68813;DHT22;55808;48.112;11.552;2023-04-03T03:24:05;2.30;99.90
68813;DHT22;55808;48.112;11.552;2023-04-03T03:26:31;2.30;99.90
68813;DHT22;55808;48.112;11.552;2023-04-03T03:28:57;2.30;99.90
68813;DHT22;55808;48.112;11.552;2023-04-03T03:31:22;2.40;99.90
68813;DHT22;55808;48.112;11.552;2023-04-03T03:33:48;2.30;99.90
68813;DHT22;55808;48.112;11.552;2023-04-03T03:36:13;2.30;99.90
68813;DHT22;55808;48.112;11.552;2023-04-03T03:38:39;2.30;99.90
68813;DHT22;55808;48.112;11.552;2023-04-03T03:41:05;2.30;99.90
68813;DHT22;55808;48.112;11.552;2023-04-03T03:43:31;2.30;99.90
68813;DHT22;55808;48.112;11.552;2023-04-03T03:45:56;2.40;99.90
68813;DHT22;55808;48.112;11.552;2023-04-03T03:48:22;2.30;99.90
68813;DHT22;55808;48.112;11.552;2023-04-03T03:50:48;2.30;99.90
68813;DHT22;55808;48.112;11.552;2023-04-03T03:53:14;2.30;99.90
68813;DHT22;55808;48.112;11.552;2023-04-03T03:55:40;2.30;99.90
68813;DHT22;55808;48.112;11.552;2023-04-03T03:58:05;2.20;99.90
68813;DHT22;55808;48.112;11.552;2023-04-03T04:00:31;2.20;99.90
68813;DHT22;55808;48.112;11.552;2023-04-03T04:02:57;2.30;99.90
68813;DHT22;55808;48.112;11.552;2023-04-03T04:05:22;2.30;99.90
68813;DHT22;55808;48.112;11.552;2023-04-03T04:07:48;2.40;99.90
68813;DHT22;55808;48.112;11.552;2023-04-03T04:10:13;2.40;99.90
68813;DHT22;55808;48.112;11.552;2023-04-03T04:12:39;2.40;99.90
68813;DHT22;55808;48.112;11.552;2023-04-03T04:15:05;2.40;99.90
68813;DHT22;55808;48.112;11.552;2023-04-03T04:17:30;2.40;99.90
68813;DHT22;55808;48.112;11.552;2023-04-03T04:19:56;2.30;99.90
68813;DHT22;55808;48.112;11.552;2023-04-03T04:22:22;2.20;99.90
68813;DHT22;55808;48.112;11.552;2023-04-03T04:24:47;2.20;99.90
68813;DHT22;55808;48.112;11.552;2023-04-03T04:27:13;2.30;99.90
68813;DHT22;55808;48.112;11.552;2023-04-03T04:29:38;2.40;99.90
68813;DHT22;55808;48.112;11.552;2023-04-03T04:32:04;2.40;99.90
68813;DHT22;55808;48.112;11.552;2023-04-03T04:34:29;2.40;99.90
68813;DHT22;55808;48.112;11.552;2023-04-03T04:36:55;2.30;99.90
68813;DHT22;55808;48.112;11.552;2023-04-03T04:39:21;2.40;99.90
68813;DHT22;55808;48.112;11.552;2023-04-03T04:41:46;2.40;99.90
68813;DHT22;55808;48.112;11.552;2023-04-03T04:44:12;2.40;99.90
68813;DHT22;55808;48.112;11.552;2023-04-03T04:46:37;2.30;99.90
68813;DHT22;55808;48.112;11.552;2023-04-03T04:49:03;2.20;99.90
68813;DHT22;55808;48.112;11.552;2023-04-03T04:51:28;2.30;99.90
68813;DHT22;55808;48.112;11.552;2023-04-03T04:53:54;2.30;99.90
68813;DHT22;55808;48.112;11.552;2023-04-03T04:56:19;2.30;99.90
68813;DHT22;55808;48.112;11.552;2023-04-03T04:58:46;2.30;99.90
68813;DHT22;55808;48.112;11.552;2023-04-03T05:01:11;2.30;99.90
68813;DHT22;55808;48.112;11.552;2023-04-03T05:03:37;2.40;99.90
68813;DHT22;55808;48.112;11.552;2023-04-03T05:06:02;2.30;99.90
68813;DHT22;55808;48.112;11.552;2023-04-03T05:08:28;2.30;99.90
68813;DHT22;55808;48.112;11.552;2023-04-03T05:10:54;2.40;99.90
68813;DHT22;55808;48.112;11.552;2023-04-03T05:13:19;2.40;99.90
68813;DHT22;55808;48.112;11.552;2023-04-03T05:15:45;2.40;99.90
68813;DHT22;55808;48.112;11.552;2023-04-03T05:18:11;2.40;99.90
68813;DHT22;55808;48.112;11.552;2023-04-03T05:20:37;2.30;99.90
68813;DHT22;55808;48.112;11.552;2023-04-03T05:23:02;2.40;99.90
68813;DHT22;55808;48.112;11.552;2023-04-03T05:25:28;2.40;99.90
68813;DHT22;55808;48.112;11.552;2023-04-03T05:27:53;2.40;99.90
68813;DHT22;55808;48.112;11.552;2023-04-03T05:30:19;2.40;99.90
68813;DHT22;55808;48.112;11.552;2023-04-03T05:32:45;2.30;99.90
68813;DHT22;55808;48.112;11.552;2023-04-03T05:35:10;2.30;99.90
68813;DHT22;55808;48.112;11.552;2023-04-03T05:37:36;2.30;99.90
68813;DHT22;55808;48.112;11.552;2023-04-03T05:40:02;2.30;99.90
68813;DHT22;55808;48.112;11.552;2023-04-03T05:42:28;2.40;99.90
68813;DHT22;55808;48.112;11.552;2023-04-03T05:44:53;2.40;99.90
68813;DHT22;55808;48.112;11.552;2023-04-03T05:47:19;2.50;99.90
68813;DHT22;55808;48.112;11.552;2023-04-03T05:49:45;2.50;99.90
68813;DHT22;55808;48.112;11.552;2023-04-03T05:52:29;2.60;99.90
68813;DHT22;55808;48.112;11.552;2023-04-03T05:54:55;2.50;99.90
68813;DHT22;55808;48.112;11.552;2023-04-03T05:57:21;2.60;99.90
68813;DHT22;55808;48.112;11.552;2023-04-03T05:59:47;2.60;99.90
68813;DHT22;55808;48.112;11.552;2023-04-03T06:02:14;2.60;99.90
68813;DHT22;55808;48.112;11.552;2023-04-03T06:04:39;2.60;99.90
68813;DHT22;55808;48.112;11.552;2023-04-03T06:07:05;2.70;99.90
68813;DHT22;55808;48.112;11.552;2023-04-03T06:09:31;2.70;99.90
68813;DHT22;55808;48.112;11.552;2023-04-03T06:11:57;2.80;99.90
68813;DHT22;55808;48.112;11.552;2023-04-03T06:14:24;2.70;99.90
68813;DHT22;55808;48.112;11.552;2023-04-03T06:16:50;2.70;99.90
68813;DHT22;55808;48.112;11.552;2023-04-03T06:19:15;2.70;99.90
68813;DHT22;55808;48.112;11.552;2023-04-03T06:21:41;2.70;99.90
68813;DHT22;55808;48.112;11.552;2023-04-03T06:24:11;2.80;99.90
68813;DHT22;55808;48.112;11.552;2023-04-03T06:26:37;2.90;99.90
68813;DHT22;55808;48.112;11.552;2023-04-03T06:29:03;2.90;99.90
68813;DHT22;55808;48.112;11.552;2023-04-03T06:31:28;3.00;99.90
68813;DHT22;55808;48.112;11.552;2023-04-03T06:33:54;3.10;99.90
68813;DHT22;55808;48.112;11.552;2023-04-03T06:36:20;3.20;99.90
68813;DHT22;55808;48.112;11.552;2023-04-03T06:38:46;3.20;99.90
68813;DHT22;55808;48.112;11.552;2023-04-03T06:41:12;3.30;99.90
68813;DHT22;55808;48.112;11.552;2023-04-03T06:43:37;3.30;99.90
68813;DHT22;55808;48.112;11.552;2023-04-03T06:46:03;3.20;99.90
68813;DHT22;55808;48.112;11.552;2023-04-03T06:48:29;3.20;99.90
68813;DHT22;55808;48.112;11.552;2023-04-03T06:50:54;3.30;99.90
68813;DHT22;55808;48.112;11.552;2023-04-03T06:53:20;3.30;99.90
68813;DHT22;55808;48.112;11.552;2023-04-03T06:55:46;3.30;99.90
68813;DHT22;55808;48.112;11.552;2023-04-03T06:58:12;3.30;99.90
68813;DHT22;55808;48.112;11.552;2023-04-03T07:00:39;3.40;99.90
68813;DHT22;55808;48.112;11.552;2023-04-03T07:03:04;3.40;99.90
68813;DHT22;55808;48.112;11.552;2023-04-03T07:05:30;3.40;99.90
68813;DHT22;55808;48.112;11.552;2023-04-03T07:07:55;3.50;99.90
68813;DHT22;55808;48.112;11.552;2023-04-03T07:10:21;3.50;99.90
68813;DHT22;55808;48.112;11.552;2023-04-03T07:12:46;3.40;99.90
68813;DHT22;55808;48.112;11.552;2023-04-03T07:15:15;3.30;99.90
68813;DHT22;55808;48.112;11.552;2023-04-03T07:17:40;3.50;99.90
68813;DHT22;55808;48.112;11.552;2023-04-03T07:20:06;3.50;99.90
68813;DHT22;55808;48.112;11.552;2023-04-03T07:22:32;3.50;99.90
68813;DHT22;55808;48.112;11.552;2023-04-03T07:24:58;3.60;99.90
68813;DHT22;55808;48.112;11.552;2023-04-03T07:27:24;3.70;99.90
68813;DHT22;55808;48.112;11.552;2023-04-03T07:29:50;3.70;99.90
68813;DHT22;55808;48.112;11.552;2023-04-03T07:32:16;3.60;99.90
68813;DHT22;55808;48.112;11.552;2023-04-03T07:34:43;3.50;99.90
68813;DHT22;55808;48.112;11.552;2023-04-03T07:37:08;3.60;99.90
68813;DHT22;55808;48.112;11.552;2023-04-03T07:39:34;3.60;99.90
68813;DHT22;55808;48.112;11.552;2023-04-03T07:42:00;3.70;99.90
68813;DHT22;55808;48.112;11.552;2023-04-03T07:44:25;3.70;99.90
68813;DHT22;55808;48.112;11.552;2023-04-03T07:46:51;3.90;99.90
68813;DHT22;55808;48.112;11.552;2023-04-03T07:49:17;4.00;99.90
68813;DHT22;55808;48.112;11.552;2023-04-03T07:51:43;4.10;99.90
68813;DHT22;55808;48.112;11.552;2023-04-03T07:54:09;4.00;99.90
68813;DHT22;55808;48.112;11.552;2023-04-03T07:56:35;3.90;99.90
68813;DHT22;55808;48.112;11.552;2023-04-03T07:59:00;3.90;99.90
68813;DHT22;55808;48.112;11.552;2023-04-03T08:01:26;3.90;99.90
68813;DHT22;55808;48.112;11.552;2023-04-03T08:03:52;3.90;99.90
68813;DHT22;55808;48.112;11.552;2023-04-03T08:06:18;3.80;99.90
68813;DHT22;55808;48.112;11.552;2023-04-03T08:08:43;3.70;99.90
68813;DHT22;55808;48.112;11.552;2023-04-03T08:11:10;3.70;99.90
68813;DHT22;55808;48.112;11.552;2023-04-03T08:13:35;3.80;99.90
68813;DHT22;55808;48.112;11.552;2023-04-03T08:16:08;3.80;99.90
68813;DHT22;55808;48.112;11.552;2023-04-03T08:18:34;3.80;99.90
68813;DHT22;55808;48.112;11.552;2023-04-03T08:21:04;3.70;99.90
68813;DHT22;55808;48.112;11.552;2023-04-03T08:23:30;3.70;99.90
68813;DHT22;55808;48.112;11.552;2023-04-03T08:25:56;3.90;99.90
68813;DHT22;55808;48.112;11.552;2023-04-03T08:28:21;3.80;99.90
68813;DHT22;55808;48.112;11.552;2023-04-03T08:30:47;3.70;99.90
68813;DHT22;55808;48.112;11.552;2023-04-03T08:33:12;3.80;99.90
68813;DHT22;55808;48.112;11.552;2023-04-03T08:35:40;3.90;99.90
68813;DHT22;55808;48.112;11.552;2023-04-03T08:38:06;4.10;99.90
68813;DHT22;55808;48.112;11.552;2023-04-03T08:40:32;4.20;99.90
68813;DHT22;55808;48.112;11.552;2023-04-03T08:45:28;4.20;99.90
68813;DHT22;55808;48.112;11.552;2023-04-03T08:48:00;4.30;99.90
68813;DHT22;55808;48.112;11.552;2023-04-03T08:50:39;4.30;99.90
68813;DHT22;55808;48.112;11.552;2023-04-03T08:53:06;4.20;99.90
68813;DHT22;55808;48.112;11.552;2023-04-03T08:55:43;4.20;99.90
68813;DHT22;55808;48.112;11.552;2023-04-03T08:58:12;4.20;99.90
68813;DHT22;55808;48.112;11.552;2023-04-03T09:00:44;4.30;99.90
68813;DHT22;55808;48.112;11.552;2023-04-03T09:03:11;4.40;99.90
68813;DHT22;55808;48.112;11.552;2023-04-03T09:10:30;4.50;99.90
68813;DHT22;55808;48.112;11.552;2023-04-03T09:13:21;4.40;99.90
68813;DHT22;55808;48.112;11.552;2023-04-03T09:15:43;4.30;99.90
68813;DHT22;55808;48.112;11.552;2023-04-03T09:25:56;5.00;99.90
68813;DHT22;55808;48.112;11.552;2023-04-03T09:28:23;4.90;99.90
68813;DHT22;55808;48.112;11.552;2023-04-03T09:30:48;4.90;99.90
68813;DHT22;55808;48.112;11.552;2023-04-03T09:33:14;5.00;99.90
68813;DHT22;55808;48.112;11.552;2023-04-03T09:35:40;5.10;99.90
68813;DHT22;55808;48.112;11.552;2023-04-03T09:40:39;5.20;99.90
68813;DHT22;55808;48.112;11.552;2023-04-03T09:45:43;5.00;99.90
68813;DHT22;55808;48.112;11.552;2023-04-03T09:48:17;5.00;99.90
68813;DHT22;55808;48.112;11.552;2023-04-03T09:50:53;4.90;99.90
68813;DHT22;55808;48.112;11.552;2023-04-03T09:53:43;4.80;99.90
68813;DHT22;55808;48.112;11.552;2023-04-03T09:58:46;4.80;99.90
68813;DHT22;55808;48.112;11.552;2023-04-03T10:01:56;4.60;99.90
68813;DHT22;55808;48.112;11.552;2023-04-03T10:04:13;4.60;99.90
68813;DHT22;55808;48.112;11.552;2023-04-03T10:06:40;4.70;99.90
68813;DHT22;55808;48.112;11.552;2023-04-03T10:09:16;4.70;99.90
68813;DHT22;55808;48.112;11.552;2023-04-03T10:12:02;4.90;99.90
68813;DHT22;55808;48.112;11.552;2023-04-03T10:14:30;4.80;99.90
68813;DHT22;55808;48.112;11.552;2023-04-03T10:27:40;4.70;99.90
68813;DHT22;55808;48.112;11.552;2023-04-03T10:37:48;4.20;99.90
68813;DHT22;55808;48.112;11.552;2023-04-03T10:40:23;4.30;99.90
68813;DHT22;55808;48.112;11.552;2023-04-03T10:42:55;4.20;99.90
68813;DHT22;55808;48.112;11.552;2023-04-03T10:45:31;4.10;99.90
68813;DHT22;55808;48.112;11.552;2023-04-03T10:50:39;4.10;99.90
68813;DHT22;55808;48.112;11.552;2023-04-03T10:53:20;4.10;99.90
68813;DHT22;55808;48.112;11.552;2023-04-03T10:58:35;4.10;99.90
68813;DHT22;55808;48.112;11.552;2023-04-03T11:01:23;3.90;99.90
68813;DHT22;55808;48.112;11.552;2023-04-03T11:03:49;3.90;99.90
68813;DHT22;55808;48.112;11.552;2023-04-03T11:06:18;3.80;99.90
68813;DHT22;55808;48.112;11.552;2023-04-03T11:08:52;3.80;99.90
68813;DHT22;55808;48.112;11.552;2023-04-03T11:11:39;3.80;99.90
68813;DHT22;55808;48.112;11.552;2023-04-03T11:14:09;3.70;99.90
68813;DHT22;55808;48.112;11.552;2023-04-03T11:16:47;3.60;99.90
68813;DHT22;55808;48.112;11.552;2023-04-03T11:19:17;3.60;99.90
68813;DHT22;55808;48.112;11.552;2023-04-03T11:24:46;3.90;99.90
68813;DHT22;55808;48.112;11.552;2023-04-03T11:27:17;4.00;99.90
68813;DHT22;55808;48.112;11.552;2023-04-03T11:29:47;4.00;99.90
68813;DHT22;55808;48.112;11.552;2023-04-03T11:34:53;4.50;99.90
68813;DHT22;55808;48.112;11.552;2023-04-03T11:37:39;4.80;99.90
68813;DHT22;55808;48.112;11.552;2023-04-03T11:40:08;4.80;99.90
68813;DHT22;55808;48.112;11.552;2023-04-03T11:42:54;4.90;99.90
68813;DHT22;55808;48.112;11.552;2023-04-03T11:45:25;4.80;99.90
68813;DHT22;55808;48.112;11.552;2023-04-03T11:47:56;4.80;99.90
68813;DHT22;55808;48.112;11.552;2023-04-03T12:13:36;5.10;99.90
68813;DHT22;55808;48.112;11.552;2023-04-03T12:16:03;5.10;99.90
68813;DHT22;55808;48.112;11.552;2023-04-03T12:21:16;5.10;99.90
68813;DHT22;55808;48.112;11.552;2023-04-03T12:26:32;5.10;99.90
68813;DHT22;55808;48.112;11.552;2023-04-03T12:29:01;5.30;99.90
68813;DHT22;55808;48.112;11.552;2023-04-03T12:31:35;5.30;99.90
68813;DHT22;55808;48.112;11.552;2023-04-03T12:39:16;5.30;99.90
68813;DHT22;55808;48.112;11.552;2023-04-03T12:41:48;5.30;99.90
68813;DHT22;55808;48.112;11.552;2023-04-03T12:47:42;5.40;99.90
68813;DHT22;55808;48.112;11.552;2023-04-03T12:50:03;5.30;99.90
68813;DHT22;55808;48.112;11.552;2023-04-03T12:52:40;5.60;99.90
68813;DHT22;55808;48.112;11.552;2023-04-03T12:55:16;5.80;99.90
68813;DHT22;55808;48.112;11.552;2023-04-03T12:57:42;6.10;99.90
68813;DHT22;55808;48.112;11.552;2023-04-03T13:02:52;6.30;99.90
68813;DHT22;55808;48.112;11.552;2023-04-03T13:05:18;6.30;99.90
68813;DHT22;55808;48.112;11.552;2023-04-03T13:07:44;6.50;99.90
68813;DHT22;55808;48.112;11.552;2023-04-03T13:10:15;6.50;99.90
68813;DHT22;55808;48.112;11.552;2023-04-03T13:12:49;6.40;99.90
68813;DHT22;55808;48.112;11.552;2023-04-03T13:15:16;6.30;99.90
68813;DHT22;55808;48.112;11.552;2023-04-03T13:17:43;6.10;99.90
68813;DHT22;55808;48.112;11.552;2023-04-03T13:20:12;6.00;99.90
68813;DHT22;55808;48.112;11.552;2023-04-03T13:22:40;5.90;99.90
68813;DHT22;55808;48.112;11.552;2023-04-03T13:25:09;5.80;99.90
68813;DHT22;55808;48.112;11.552;2023-04-03T13:27:35;6.10;99.90
68813;DHT22;55808;48.112;11.552;2023-04-03T13:30:02;6.50;99.90
68813;DHT22;55808;48.112;11.552;2023-04-03T13:32:28;6.80;99.90
68813;DHT22;55808;48.112;11.552;2023-04-03T13:34:55;6.70;99.90
68813;DHT22;55808;48.112;11.552;2023-04-03T13:37:32;6.60;98.60
68813;DHT22;55808;48.112;11.552;2023-04-03T13:40:16;6.60;98.90
68813;DHT22;55808;48.112;11.552;2023-04-03T13:42:41;8.30;99.90
68813;DHT22;55808;48.112;11.552;2023-04-03T13:47:44;9.10;94.60
68813;DHT22;55808;48.112;11.552;2023-04-03T13:50:20;7.90;95.00
68813;DHT22;55808;48.112;11.552;2023-04-03T13:52:52;7.10;95.30
68813;DHT22;55808;48.112;11.552;2023-04-03T13:55:22;6.50;95.00
68813;DHT22;55808;48.112;11.552;2023-04-03T14:00:30;5.50;96.20
68813;DHT22;55808;48.112;11.552;2023-04-03T14:02:56;5.30;95.30
68813;DHT22;55808;48.112;11.552;2023-04-03T14:05:23;5.50;98.90
68813;DHT22;55808;48.112;11.552;2023-04-03T14:07:50;5.60;95.80
68813;DHT22;55808;48.112;11.552;2023-04-03T14:10:16;5.50;95.50
68813;DHT22;55808;48.112;11.552;2023-04-03T14:12:42;5.50;97.20
68813;DHT22;55808;48.112;11.552;2023-04-03T14:15:29;5.60;96.70
68813;DHT22;55808;48.112;11.552;2023-04-03T14:17:54;5.80;95.00
68813;DHT22;55808;48.112;11.552;2023-04-03T14:20:22;5.90;94.20
68813;DHT22;55808;48.112;11.552;2023-04-03T14:22:48;5.80;94.70
68813;DHT22;55808;48.112;11.552;2023-04-03T14:25:15;6.00;94.80
68813;DHT22;55808;48.112;11.552;2023-04-03T14:27:42;6.30;93.60
68813;DHT22;55808;48.112;11.552;2023-04-03T14:30:12;6.70;95.40
68813;DHT22;55808;48.112;11.552;2023-04-03T14:32:39;6.60;94.50
68813;DHT22;55808;48.112;11.552;2023-04-03T14:35:04;6.50;92.60
68813;DHT22;55808;48.112;11.552;2023-04-03T14:37:31;6.70;96.20
68813;DHT22;55808;48.112;11.552;2023-04-03T14:39:57;6.90;93.90
68813;DHT22;55808;48.112;11.552;2023-04-03T14:42:25;7.30;93.70
68813;DHT22;55808;48.112;11.552;2023-04-03T14:44:51;7.60;92.00
68813;DHT22;55808;48.112;11.552;2023-04-03T14:47:18;7.30;90.50
68813;DHT22;55808;48.112;11.552;2023-04-03T14:49:45;7.10;91.10
68813;DHT22;55808;48.112;11.552;2023-04-03T14:52:16;6.80;91.10
68813;DHT22;55808;48.112;11.552;2023-04-03T14:54:43;6.60;91.30
68813;DHT22;55808;48.112;11.552;2023-04-03T14:57:08;6.40;90.00
68813;DHT22;55808;48.112;11.552;2023-04-03T14:59:35;6.30;90.60
68813;DHT22;55808;48.112;11.552;2023-04-03T15:02:00;6.20;91.60
68813;DHT22;55808;48.112;11.552;2023-04-03T15:04:26;6.20;92.40
68813;DHT22;55808;48.112;11.552;2023-04-03T15:06:53;6.20;92.30
68813;DHT22;55808;48.112;11.552;2023-04-03T15:09:19;6.20;91.30
68813;DHT22;55808;48.112;11.552;2023-04-03T15:11:46;6.20;92.20
68813;DHT22;55808;48.112;11.552;2023-04-03T15:14:12;6.10;94.00
68813;DHT22;55808;48.112;11.552;2023-04-03T15:16:37;6.10;93.50
68813;DHT22;55808;48.112;11.552;2023-04-03T15:19:03;5.90;91.10
68813;DHT22;55808;48.112;11.552;2023-04-03T15:21:28;5.70;88.70
68813;DHT22;55808;48.112;11.552;2023-04-03T15:23:56;5.50;87.60
68813;DHT22;55808;48.112;11.552;2023-04-03T15:26:22;5.40;87.10
68813;DHT22;55808;48.112;11.552;2023-04-03T15:28:48;5.40;88.70
68813;DHT22;55808;48.112;11.552;2023-04-03T15:31:13;5.40;88.70
68813;DHT22;55808;48.112;11.552;2023-04-03T15:33:39;5.40;90.60
68813;DHT22;55808;48.112;11.552;2023-04-03T15:36:05;5.60;89.40
68813;DHT22;55808;48.112;11.552;2023-04-03T15:38:30;5.60;90.10
68813;DHT22;55808;48.112;11.552;2023-04-03T15:40:56;5.60;89.40
68813;DHT22;55808;48.112;11.552;2023-04-03T15:43:21;5.60;88.10
68813;DHT22;55808;48.112;11.552;2023-04-03T15:45:47;5.90;89.00
68813;DHT22;55808;48.112;11.552;2023-04-03T15:48:13;5.90;86.60
68813;DHT22;55808;48.112;11.552;2023-04-03T15:50:39;5.80;88.20
68813;DHT22;55808;48.112;11.552;2023-04-03T15:53:05;5.80;88.50
68813;DHT22;55808;48.112;11.552;2023-04-03T15:55:34;5.70;86.30
68813;DHT22;55808;48.112;11.552;2023-04-03T15:58:00;5.60;86.70
68813;DHT22;55808;48.112;11.552;2023-04-03T16:00:26;5.50;83.60
68813;DHT22;55808;48.112;11.552;2023-04-03T16:02:54;5.60;88.20
68813;DHT22;55808;48.112;11.552;2023-04-03T16:05:20;5.60;84.40
68813;DHT22;55808;48.112;11.552;2023-04-03T16:07:46;5.50;83.60
68813;DHT22;55808;48.112;11.552;2023-04-03T16:10:12;5.40;84.20
68813;DHT22;55808;48.112;11.552;2023-04-03T16:12:38;5.30;81.80
68813;DHT22;55808;48.112;11.552;2023-04-03T16:15:04;5.20;83.00
68813;DHT22;55808;48.112;11.552;2023-04-03T16:17:29;5.10;83.70
68813;DHT22;55808;48.112;11.552;2023-04-03T16:19:57;5.20;87.30
68813;DHT22;55808;48.112;11.552;2023-04-03T16:22:23;5.10;82.60
68813;DHT22;55808;48.112;11.552;2023-04-03T16:24:50;5.00;85.40
68813;DHT22;55808;48.112;11.552;2023-04-03T16:27:15;5.00;85.20
68813;DHT22;55808;48.112;11.552;2023-04-03T16:29:41;5.00;84.50
68813;DHT22;55808;48.112;11.552;2023-04-03T16:32:07;4.90;86.20
68813;DHT22;55808;48.112;11.552;2023-04-03T16:34:32;4.80;86.20
68813;DHT22;55808;48.112;11.552;2023-04-03T16:36:58;4.80;87.70
68813;DHT22;55808;48.112;11.552;2023-04-03T16:39:24;4.70;85.50
68813;DHT22;55808;48.112;11.552;2023-04-03T16:41:49;4.70;84.10
68813;DHT22;55808;48.112;11.552;2023-04-03T16:44:15;4.80;85.70
68813;DHT22;55808;48.112;11.552;2023-04-03T16:46:40;4.80;88.10
68813;DHT22;55808;48.112;11.552;2023-04-03T16:49:06;4.80;86.00
68813;DHT22;55808;48.112;11.552;2023-04-03T16:51:31;4.80;85.70
68813;DHT22;55808;48.112;11.552;2023-04-03T16:53:57;4.80;85.10
68813;DHT22;55808;48.112;11.552;2023-04-03T16:56:23;4.80;84.40
68813;DHT22;55808;48.112;11.552;2023-04-03T16:58:49;4.80;85.50
68813;DHT22;55808;48.112;11.552;2023-04-03T17:01:16;4.70;83.60
68813;DHT22;55808;48.112;11.552;2023-04-03T17:03:41;4.70;84.30
68813;DHT22;55808;48.112;11.552;2023-04-03T17:06:07;4.70;85.40
68813;DHT22;55808;48.112;11.552;2023-04-03T17:08:33;4.70;85.20
68813;DHT22;55808;48.112;11.552;2023-04-03T17:10:58;4.70;84.30
68813;DHT22;55808;48.112;11.552;2023-04-03T17:13:24;4.70;87.70